sensor_id;sensor_type;location;lat;lon;timestamp;pressure;altitude;pressure_sealevel;temperature;humidity
32747;BME280;19118;50.860;13.662;2023-06-22T00:01:08;97221.13;;;16.40;100.00
32747;BME280;19118;50.860;13.662;2023-06-22T00:06:09;97215.53;;;16.29;100.00
32747;BME280;19118;50.860;13.662;2023-06-22T00:11:09;97224.22;;;16.25;100.00
32747;BME280;19118;50.860;13.662;2023-06-22T00:16:10;97229.31;;;16.15;100.00
32747;BME280;19118;50.860;13.662;2023-06-22T00:21:10;97241.84;;;16.14;100.00
32747;BME280;19118;50.860;13.662;2023-06-22T00:26:13;97245.50;;;16.01;100.00
32747;BME280;19118;50.860;13.662;2023-06-22T00:31:13;97234.81;;;16.01;100.00
32747;BME280;19118;50.860;13.662;2023-06-22T00:36:14;97239.34;;;16.01;100.00
32747;BME280;19118;50.860;13.662;2023-06-22T00:41:17;97234.81;;;16.01;100.00
32747;BME280;19118;50.860;13.662;2023-06-22T00:46:18;97231.47;;;16.06;100.00
32747;BME280;19118;50.860;13.662;2023-06-22T00:51:18;97234.00;;;16.01;100.00
32747;BME280;19118;50.860;13.662;2023-06-22T00:56:20;97224.69;;;15.92;100.00
32747;BME280;19118;50.860;13.662;2023-06-22T01:01:25;97228.84;;;15.88;100.00
32747;BME280;19118;50.860;13.662;2023-06-22T01:06:30;97228.34;;;15.79;100.00
32747;BME280;19118;50.860;13.662;2023-06-22T01:11:42;97227.59;;;15.72;100.00
32747;BME280;19118;50.860;13.662;2023-06-22T01:16:47;97221.84;;;15.75;100.00
32747;BME280;19118;50.860;13.662;2023-06-22T01:21:49;97221.34;;;15.66;100.00
32747;BME280;19118;50.860;13.662;2023-06-22T01:27:14;97220.19;;;15.56;100.00
32747;BME280;19118;50.860;13.662;2023-06-22T01:32:22;97221.69;;;15.52;100.00
32747;BME280;19118;50.860;13.662;2023-06-22T01:37:23;97220.03;;;15.51;100.00
32747;BME280;19118;50.860;13.662;2023-06-22T01:42:25;97219.31;;;15.43;100.00
32747;BME280;19118;50.860;13.662;2023-06-22T01:47:26;97213.25;;;15.36;100.00
32747;BME280;19118;50.860;13.662;2023-06-22T01:52:27;97214.28;;;15.35;100.00
32747;BME280;19118;50.860;13.662;2023-06-22T01:57:30;97219.25;;;15.32;100.00
32747;BME280;19118;50.860;13.662;2023-06-22T02:02:39;97214.88;;;15.19;100.00
32747;BME280;19118;50.860;13.662;2023-06-22T02:08:01;97200.56;;;15.13;100.00
32747;BME280;19118;50.860;13.662;2023-06-22T02:13:07;97207.44;;;15.03;100.00
32747;BME280;19118;50.860;13.662;2023-06-22T02:18:08;97211.31;;;15.07;100.00
32747;BME280;19118;50.860;13.662;2023-06-22T02:23:09;97219.00;;;14.97;100.00
32747;BME280;19118;50.860;13.662;2023-06-22T02:28:09;97215.56;;;14.90;100.00
32747;BME280;19118;50.860;13.662;2023-06-22T02:33:09;97205.78;;;14.83;100.00
32747;BME280;19118;50.860;13.662;2023-06-22T02:38:10;97207.50;;;14.78;100.00
32747;BME280;19118;50.860;13.662;2023-06-22T02:43:13;97213.63;;;14.78;100.00
32747;BME280;19118;50.860;13.662;2023-06-22T02:48:13;97215.69;;;14.76;100.00
32747;BME280;19118;50.860;13.662;2023-06-22T02:53:14;97208.75;;;14.75;100.00
32747;BME280;19118;50.860;13.662;2023-06-22T02:58:19;97215.25;;;14.79;100.00
32747;BME280;19118;50.860;13.662;2023-06-22T03:03:20;97215.84;;;14.81;100.00
32747;BME280;19118;50.860;13.662;2023-06-22T03:08:20;97212.16;;;14.82;100.00
32747;BME280;19118;50.860;13.662;2023-06-22T03:13:20;97213.50;;;14.92;100.00
32747;BME280;19118;50.860;13.662;2023-06-22T03:18:21;97194.59;;;15.00;100.00
32747;BME280;19118;50.860;13.662;2023-06-22T03:23:22;97180.97;;;15.08;100.00
32747;BME280;19118;50.860;13.662;2023-06-22T03:28:22;97174.31;;;15.17;100.00
32747;BME280;19118;50.860;13.662;2023-06-22T03:33:23;97184.84;;;15.30;100.00
32747;BME280;19118;50.860;13.662;2023-06-22T03:38:23;97190.81;;;15.44;100.00
32747;BME280;19118;50.860;13.662;2023-06-22T03:43:27;97189.84;;;15.57;100.00
32747;BME280;19118;50.860;13.662;2023-06-22T03:48:27;97194.44;;;15.68;100.00
32747;BME280;19118;50.860;13.662;2023-06-22T03:53:27;97186.25;;;15.81;100.00
32747;BME280;19118;50.860;13.662;2023-06-22T03:58:28;97175.41;;;15.94;100.00
32747;BME280;19118;50.860;13.662;2023-06-22T04:03:32;97183.25;;;16.19;100.00
32747;BME280;19118;50.860;13.662;2023-06-22T04:08:33;97196.44;;;16.44;100.00
32747;BME280;19118;50.860;13.662;2023-06-22T04:13:33;97179.94;;;17.81;100.00
32747;BME280;19118;50.860;13.662;2023-06-22T04:18:33;97200.75;;;19.42;100.00
32747;BME280;19118;50.860;13.662;2023-06-22T04:23:34;97222.69;;;20.53;100.00
32747;BME280;19118;50.860;13.662;2023-06-22T04:28:34;97224.69;;;21.47;100.00
32747;BME280;19118;50.860;13.662;2023-06-22T04:33:37;97235.22;;;21.12;100.00
32747;BME280;19118;50.860;13.662;2023-06-22T04:38:40;97231.84;;;19.60;100.00
32747;BME280;19118;50.860;13.662;2023-06-22T04:43:42;97237.03;;;19.11;100.00
32747;BME280;19118;50.860;13.662;2023-06-22T04:48:42;97242.88;;;19.25;100.00
32747;BME280;19118;50.860;13.662;2023-06-22T04:53:43;97262.13;;;20.48;100.00
32747;BME280;19118;50.860;13.662;2023-06-22T04:58:43;97275.78;;;21.90;100.00
32747;BME280;19118;50.860;13.662;2023-06-22T05:03:43;97311.66;;;22.00;100.00
32747;BME280;19118;50.860;13.662;2023-06-22T05:08:44;97324.72;;;21.76;100.00
32747;BME280;19118;50.860;13.662;2023-06-22T05:13:44;97327.22;;;21.88;100.00
32747;BME280;19118;50.860;13.662;2023-06-22T05:18:44;97328.34;;;21.97;100.00
32747;BME280;19118;50.860;13.662;2023-06-22T05:23:45;97325.31;;;21.89;100.00
32747;BME280;19118;50.860;13.662;2023-06-22T05:28:46;97327.34;;;21.66;100.00
32747;BME280;19118;50.860;13.662;2023-06-22T05:33:47;97311.66;;;22.00;100.00
32747;BME280;19118;50.860;13.662;2023-06-22T05:38:47;97310.03;;;23.59;100.00
32747;BME280;19118;50.860;13.662;2023-06-22T05:43:47;97322.75;;;24.38;98.78
32747;BME280;19118;50.860;13.662;2023-06-22T05:48:48;97324.66;;;25.21;90.31
32747;BME280;19118;50.860;13.662;2023-06-22T05:53:48;97326.72;;;25.63;81.92
32747;BME280;19118;50.860;13.662;2023-06-22T05:58:50;97325.03;;;25.72;81.12
32747;BME280;19118;50.860;13.662;2023-06-22T06:03:50;97312.19;;;25.54;81.45
32747;BME280;19118;50.860;13.662;2023-06-22T06:08:52;97314.44;;;25.76;82.40
32747;BME280;19118;50.860;13.662;2023-06-22T06:13:53;97306.22;;;25.23;89.40
32747;BME280;19118;50.860;13.662;2023-06-22T06:18:53;97297.63;;;25.45;92.93
32747;BME280;19118;50.860;13.662;2023-06-22T06:23:55;97286.56;;;25.12;93.57
32747;BME280;19118;50.860;13.662;2023-06-22T06:28:56;97253.63;;;25.00;94.53
32747;BME280;19118;50.860;13.662;2023-06-22T06:33:57;97181.28;;;24.82;92.49
32747;BME280;19118;50.860;13.662;2023-06-22T06:38:57;97198.47;;;25.25;87.52
32747;BME280;19118;50.860;13.662;2023-06-22T06:43:58;97208.41;;;24.37;89.42
32747;BME280;19118;50.860;13.662;2023-06-22T06:48:58;97212.22;;;24.26;92.07
32747;BME280;19118;50.860;13.662;2023-06-22T06:53:59;97213.56;;;24.29;99.27
32747;BME280;19118;50.860;13.662;2023-06-22T06:58:59;97208.13;;;24.39;99.77
32747;BME280;19118;50.860;13.662;2023-06-22T07:04:00;97208.00;;;24.54;96.58
32747;BME280;19118;50.860;13.662;2023-06-22T07:09:01;97209.00;;;24.24;98.14
32747;BME280;19118;50.860;13.662;2023-06-22T07:14:01;97216.00;;;24.70;95.30
32747;BME280;19118;50.860;13.662;2023-06-22T07:19:02;97226.09;;;24.93;93.98
32747;BME280;19118;50.860;13.662;2023-06-22T07:24:02;97230.13;;;25.53;90.20
32747;BME280;19118;50.860;13.662;2023-06-22T07:29:03;97229.00;;;25.83;87.10
32747;BME280;19118;50.860;13.662;2023-06-22T07:34:04;97222.28;;;25.52;88.46
32747;BME280;19118;50.860;13.662;2023-06-22T07:39:05;97219.47;;;25.86;85.52
32747;BME280;19118;50.860;13.662;2023-06-22T07:44:05;97209.56;;;26.19;84.61
32747;BME280;19118;50.860;13.662;2023-06-22T07:49:06;97228.69;;;25.85;83.73
32747;BME280;19118;50.860;13.662;2023-06-22T07:54:09;97229.81;;;26.03;81.25
32747;BME280;19118;50.860;13.662;2023-06-22T07:59:09;97221.34;;;26.09;81.69
32747;BME280;19118;50.860;13.662;2023-06-22T08:04:10;97220.91;;;26.21;79.41
32747;BME280;19118;50.860;13.662;2023-06-22T08:09:10;97216.78;;;26.80;76.06
32747;BME280;19118;50.860;13.662;2023-06-22T08:14:10;97224.44;;;26.59;75.90
32747;BME280;19118;50.860;13.662;2023-06-22T08:19:11;97219.22;;;27.28;71.63
32747;BME280;19118;50.860;13.662;2023-06-22T08:24:11;97221.41;;;27.12;70.84
32747;BME280;19118;50.860;13.662;2023-06-22T08:29:12;97221.00;;;27.05;73.14
32747;BME280;19118;50.860;13.662;2023-06-22T08:34:12;97210.00;;;27.56;69.41
32747;BME280;19118;50.860;13.662;2023-06-22T08:39:12;97210.13;;;27.65;69.83
32747;BME280;19118;50.860;13.662;2023-06-22T08:44:13;97208.25;;;28.16;67.22
32747;BME280;19118;50.860;13.662;2023-06-22T08:49:13;97212.59;;;27.62;69.56
32747;BME280;19118;50.860;13.662;2023-06-22T08:54:14;97212.84;;;27.79;68.19
32747;BME280;19118;50.860;13.662;2023-06-22T08:59:14;97211.75;;;28.30;66.01
32747;BME280;19118;50.860;13.662;2023-06-22T09:04:15;97213.75;;;27.88;66.52
32747;BME280;19118;50.860;13.662;2023-06-22T09:09:16;97203.28;;;28.31;67.28
32747;BME280;19118;50.860;13.662;2023-06-22T09:14:16;97203.22;;;29.04;63.96
32747;BME280;19118;50.860;13.662;2023-06-22T09:19:17;97196.22;;;28.44;63.50
32747;BME280;19118;50.860;13.662;2023-06-22T09:24:17;97197.66;;;28.28;66.22
32747;BME280;19118;50.860;13.662;2023-06-22T09:29:17;97189.28;;;28.60;64.86
32747;BME280;19118;50.860;13.662;2023-06-22T09:34:18;97189.03;;;29.15;63.23
32747;BME280;19118;50.860;13.662;2023-06-22T09:39:20;97184.31;;;29.07;64.20
32747;BME280;19118;50.860;13.662;2023-06-22T09:44:20;97184.56;;;30.16;62.03
32747;BME280;19118;50.860;13.662;2023-06-22T09:49:21;97173.00;;;30.45;59.52
32747;BME280;19118;50.860;13.662;2023-06-22T09:54:21;97185.94;;;29.88;62.02
32747;BME280;19118;50.860;13.662;2023-06-22T09:59:21;97189.19;;;29.19;63.09
32747;BME280;19118;50.860;13.662;2023-06-22T10:04:21;97182.41;;;29.08;63.90
32747;BME280;19118;50.860;13.662;2023-06-22T10:09:22;97174.44;;;29.20;63.64
32747;BME280;19118;50.860;13.662;2023-06-22T10:14:22;97171.56;;;29.16;66.15
32747;BME280;19118;50.860;13.662;2023-06-22T10:19:24;97171.66;;;28.80;66.88
32747;BME280;19118;50.860;13.662;2023-06-22T10:24:24;97169.59;;;28.41;68.97
32747;BME280;19118;50.860;13.662;2023-06-22T10:29:25;97160.16;;;28.38;66.97
32747;BME280;19118;50.860;13.662;2023-06-22T10:34:25;97152.16;;;28.64;66.58
32747;BME280;19118;50.860;13.662;2023-06-22T10:39:25;97147.84;;;28.41;65.91
32747;BME280;19118;50.860;13.662;2023-06-22T10:44:26;97142.34;;;29.08;64.75
32747;BME280;19118;50.860;13.662;2023-06-22T10:49:26;97140.69;;;29.86;62.73
32747;BME280;19118;50.860;13.662;2023-06-22T10:54:26;97145.06;;;30.05;62.07
32747;BME280;19118;50.860;13.662;2023-06-22T10:59:27;97140.03;;;29.33;64.97
32747;BME280;19118;50.860;13.662;2023-06-22T11:04:28;97125.47;;;30.72;60.70
32747;BME280;19118;50.860;13.662;2023-06-22T11:09:29;97132.06;;;30.54;58.70
32747;BME280;19118;50.860;13.662;2023-06-22T11:14:29;97118.31;;;31.06;60.35
32747;BME280;19118;50.860;13.662;2023-06-22T11:19:29;97114.44;;;30.17;60.60
32747;BME280;19118;50.860;13.662;2023-06-22T11:24:30;97107.84;;;30.26;59.03
32747;BME280;19118;50.860;13.662;2023-06-22T11:29:30;97103.63;;;30.72;60.04
32747;BME280;19118;50.860;13.662;2023-06-22T11:34:31;97100.91;;;30.46;59.21
32747;BME280;19118;50.860;13.662;2023-06-22T11:39:31;97100.16;;;30.28;59.09
32747;BME280;19118;50.860;13.662;2023-06-22T11:44:31;97098.19;;;30.72;57.83
32747;BME280;19118;50.860;13.662;2023-06-22T11:49:32;97085.47;;;31.23;55.84
32747;BME280;19118;50.860;13.662;2023-06-22T11:54:32;97086.94;;;31.20;57.48
32747;BME280;19118;50.860;13.662;2023-06-22T11:59:32;97081.13;;;30.75;57.17
32747;BME280;19118;50.860;13.662;2023-06-22T12:04:33;97079.97;;;30.85;58.96
32747;BME280;19118;50.860;13.662;2023-06-22T12:09:33;97070.75;;;29.65;58.91
32747;BME280;19118;50.860;13.662;2023-06-22T12:14:33;97073.81;;;29.98;58.39
32747;BME280;19118;50.860;13.662;2023-06-22T12:19:34;97058.03;;;30.47;56.64
32747;BME280;19118;50.860;13.662;2023-06-22T12:24:34;97049.53;;;31.04;54.85
32747;BME280;19118;50.860;13.662;2023-06-22T12:29:35;97044.97;;;30.78;54.51
32747;BME280;19118;50.860;13.662;2023-06-22T12:34:35;97045.97;;;30.56;55.10
32747;BME280;19118;50.860;13.662;2023-06-22T12:39:35;97032.56;;;31.48;54.66
32747;BME280;19118;50.860;13.662;2023-06-22T12:44:37;97027.88;;;31.78;54.71
32747;BME280;19118;50.860;13.662;2023-06-22T12:49:38;97016.84;;;31.66;52.89
32747;BME280;19118;50.860;13.662;2023-06-22T12:54:38;97022.03;;;32.22;51.97
32747;BME280;19118;50.860;13.662;2023-06-22T12:59:38;97023.25;;;32.12;53.14
32747;BME280;19118;50.860;13.662;2023-06-22T13:04:39;97018.03;;;31.56;52.43
32747;BME280;19118;50.860;13.662;2023-06-22T13:09:39;97013.06;;;32.33;53.14
32747;BME280;19118;50.860;13.662;2023-06-22T13:14:39;97018.09;;;32.10;52.53
32747;BME280;19118;50.860;13.662;2023-06-22T13:19:40;97010.88;;;31.14;53.78
32747;BME280;19118;50.860;13.662;2023-06-22T13:24:40;97007.72;;;31.03;54.20
32747;BME280;19118;50.860;13.662;2023-06-22T13:29:40;96998.44;;;31.54;52.88
32747;BME280;19118;50.860;13.662;2023-06-22T13:34:42;96996.69;;;31.29;52.58
32747;BME280;19118;50.860;13.662;2023-06-22T13:39:42;96980.63;;;31.69;54.30
32747;BME280;19118;50.860;13.662;2023-06-22T13:44:42;96958.56;;;31.95;53.57
32747;BME280;19118;50.860;13.662;2023-06-22T13:49:43;96948.53;;;31.99;52.81
32747;BME280;19118;50.860;13.662;2023-06-22T13:54:43;96963.16;;;32.15;50.71
32747;BME280;19118;50.860;13.662;2023-06-22T13:59:43;96957.97;;;32.35;50.45
32747;BME280;19118;50.860;13.662;2023-06-22T14:04:43;96962.81;;;32.75;51.43
32747;BME280;19118;50.860;13.662;2023-06-22T14:09:44;96945.69;;;33.14;49.46
32747;BME280;19118;50.860;13.662;2023-06-22T14:14:44;96945.69;;;32.78;50.16
32747;BME280;19118;50.860;13.662;2023-06-22T14:19:45;96929.41;;;32.11;50.05
32747;BME280;19118;50.860;13.662;2023-06-22T14:24:46;96930.31;;;32.15;50.50
32747;BME280;19118;50.860;13.662;2023-06-22T14:29:46;96930.84;;;32.54;51.04
32747;BME280;19118;50.860;13.662;2023-06-22T14:34:46;96926.06;;;32.51;50.78
32747;BME280;19118;50.860;13.662;2023-06-22T14:39:47;96916.63;;;32.15;50.51
32747;BME280;19118;50.860;13.662;2023-06-22T14:44:47;96899.84;;;32.87;50.47
32747;BME280;19118;50.860;13.662;2023-06-22T14:49:48;96905.63;;;32.36;51.32
32747;BME280;19118;50.860;13.662;2023-06-22T14:54:49;96898.91;;;32.34;52.24
32747;BME280;19118;50.860;13.662;2023-06-22T14:59:55;96890.00;;;31.58;53.08
32747;BME280;19118;50.860;13.662;2023-06-22T15:04:55;96884.09;;;31.69;53.55
32747;BME280;19118;50.860;13.662;2023-06-22T15:09:56;96883.94;;;31.53;54.05
32747;BME280;19118;50.860;13.662;2023-06-22T15:14:56;96881.19;;;31.74;54.18
32747;BME280;19118;50.860;13.662;2023-06-22T15:19:58;96859.28;;;31.74;54.65
32747;BME280;19118;50.860;13.662;2023-06-22T15:24:58;96856.31;;;31.67;53.73
32747;BME280;19118;50.860;13.662;2023-06-22T15:29:59;96843.84;;;31.78;53.46
32747;BME280;19118;50.860;13.662;2023-06-22T15:34:59;96843.88;;;32.27;53.20
32747;BME280;19118;50.860;13.662;2023-06-22T15:39:59;96841.75;;;32.44;52.89
32747;BME280;19118;50.860;13.662;2023-06-22T15:45:00;96813.94;;;31.73;52.96
32747;BME280;19118;50.860;13.662;2023-06-22T15:50:00;96814.16;;;31.35;52.99
32747;BME280;19118;50.860;13.662;2023-06-22T15:55:00;96821.06;;;31.86;52.44
32747;BME280;19118;50.860;13.662;2023-06-22T16:00:01;96802.44;;;31.34;52.85
32747;BME280;19118;50.860;13.662;2023-06-22T16:05:02;96786.09;;;32.28;51.42
32747;BME280;19118;50.860;13.662;2023-06-22T16:10:03;96797.66;;;33.14;50.51
32747;BME280;19118;50.860;13.662;2023-06-22T16:15:04;96795.41;;;32.64;51.96
32747;BME280;19118;50.860;13.662;2023-06-22T16:20:06;96789.53;;;31.22;54.51
32747;BME280;19118;50.860;13.662;2023-06-22T16:25:07;96783.88;;;30.65;56.32
32747;BME280;19118;50.860;13.662;2023-06-22T16:30:07;96778.16;;;31.20;55.08
32747;BME280;19118;50.860;13.662;2023-06-22T16:35:08;96789.75;;;33.53;48.98
32747;BME280;19118;50.860;13.662;2023-06-22T16:40:09;96796.41;;;35.20;46.59
32747;BME280;19118;50.860;13.662;2023-06-22T16:45:16;96785.28;;;35.75;46.14
32747;BME280;19118;50.860;13.662;2023-06-22T16:50:17;96765.53;;;35.69;46.00
32747;BME280;19118;50.860;13.662;2023-06-22T16:55:20;96770.88;;;36.04;45.02
32747;BME280;19118;50.860;13.662;2023-06-22T17:00:22;96754.41;;;36.08;44.44
32747;BME280;19118;50.860;13.662;2023-06-22T17:05:22;96740.88;;;35.53;44.92
32747;BME280;19118;50.860;13.662;2023-06-22T17:10:23;96729.06;;;34.72;46.68
32747;BME280;19118;50.860;13.662;2023-06-22T17:15:24;96720.41;;;34.00;47.08
32747;BME280;19118;50.860;13.662;2023-06-22T17:20:26;96705.19;;;33.86;48.17
32747;BME280;19118;50.860;13.662;2023-06-22T17:25:28;96706.69;;;34.89;47.62
32747;BME280;19118;50.860;13.662;2023-06-22T17:30:29;96691.44;;;35.15;46.52
32747;BME280;19118;50.860;13.662;2023-06-22T17:35:30;96685.69;;;35.00;46.24
32747;BME280;19118;50.860;13.662;2023-06-22T17:40:30;96675.47;;;32.97;49.93
32747;BME280;19118;50.860;13.662;2023-06-22T17:45:31;96681.28;;;32.03;52.48
32747;BME280;19118;50.860;13.662;2023-06-22T17:50:31;96692.47;;;30.71;55.43
32747;BME280;19118;50.860;13.662;2023-06-22T17:55:33;96674.31;;;30.04;57.25
32747;BME280;19118;50.860;13.662;2023-06-22T18:00:33;96673.50;;;28.89;60.66
32747;BME280;19118;50.860;13.662;2023-06-22T18:05:35;96643.59;;;28.37;62.65
32747;BME280;19118;50.860;13.662;2023-06-22T18:10:37;96645.47;;;28.02;64.46
32747;BME280;19118;50.860;13.662;2023-06-22T18:15:40;96633.25;;;27.65;66.57
32747;BME280;19118;50.860;13.662;2023-06-22T18:20:42;96636.19;;;27.37;68.17
32747;BME280;19118;50.860;13.662;2023-06-22T18:25:42;96629.38;;;27.09;70.66
32747;BME280;19118;50.860;13.662;2023-06-22T18:30:45;96621.09;;;26.91;72.03
32747;BME280;19118;50.860;13.662;2023-06-22T18:35:47;96610.97;;;26.75;73.27
32747;BME280;19118;50.860;13.662;2023-06-22T18:40:49;96611.41;;;26.46;75.64
32747;BME280;19118;50.860;13.662;2023-06-22T18:45:50;96617.69;;;26.32;76.98
32747;BME280;19118;50.860;13.662;2023-06-22T18:50:51;96609.84;;;26.08;79.18
32747;BME280;19118;50.860;13.662;2023-06-22T18:56:10;96617.22;;;25.80;81.20
32747;BME280;19118;50.860;13.662;2023-06-22T19:01:15;96618.34;;;25.66;83.11
32747;BME280;19118;50.860;13.662;2023-06-22T19:17:18;96632.31;;;25.32;89.30
32747;BME280;19118;50.860;13.662;2023-06-22T19:22:19;96623.78;;;25.11;91.70
32747;BME280;19118;50.860;13.662;2023-06-22T19:27:19;96622.75;;;24.93;93.77
32747;BME280;19118;50.860;13.662;2023-06-22T19:32:19;96615.13;;;24.95;94.85
32747;BME280;19118;50.860;13.662;2023-06-22T19:37:20;96600.78;;;24.94;94.40
32747;BME280;19118;50.860;13.662;2023-06-22T19:42:20;96583.53;;;24.77;96.96
32747;BME280;19118;50.860;13.662;2023-06-22T19:47:20;96575.69;;;24.61;98.40
32747;BME280;19118;50.860;13.662;2023-06-22T19:52:21;96554.25;;;24.51;99.81
32747;BME280;19118;50.860;13.662;2023-06-22T19:57:21;96528.72;;;24.57;100.00
32747;BME280;19118;50.860;13.662;2023-06-22T20:02:25;96535.81;;;24.53;100.00
32747;BME280;19118;50.860;13.662;2023-06-22T20:07:34;96545.34;;;24.64;100.00
32747;BME280;19118;50.860;13.662;2023-06-22T20:12:36;96558.88;;;24.64;100.00
32747;BME280;19118;50.860;13.662;2023-06-22T20:17:42;96525.25;;;24.71;100.00
32747;BME280;19118;50.860;13.662;2023-06-22T20:22:47;96507.41;;;24.70;100.00
32747;BME280;19118;50.860;13.662;2023-06-22T20:27:49;96488.06;;;24.62;100.00
32747;BME280;19118;50.860;13.662;2023-06-22T20:32:59;96491.75;;;24.66;100.00
32747;BME280;19118;50.860;13.662;2023-06-22T20:37:59;96482.97;;;24.75;100.00
32747;BME280;19118;50.860;13.662;2023-06-22T20:43:00;96458.00;;;24.91;100.00
32747;BME280;19118;50.860;13.662;2023-06-22T20:48:01;96436.69;;;24.62;100.00
32747;BME280;19118;50.860;13.662;2023-06-22T20:53:03;96438.50;;;24.53;100.00
32747;BME280;19118;50.860;13.662;2023-06-22T20:58:07;96457.34;;;24.58;100.00
32747;BME280;19118;50.860;13.662;2023-06-22T21:03:08;96463.03;;;24.71;100.00
32747;BME280;19118;50.860;13.662;2023-06-22T21:08:10;96461.31;;;24.75;100.00
32747;BME280;19118;50.860;13.662;2023-06-22T21:13:10;96504.00;;;24.78;100.00
32747;BME280;19118;50.860;13.662;2023-06-22T21:18:11;96517.13;;;24.84;100.00
32747;BME280;19118;50.860;13.662;2023-06-22T21:23:11;96529.34;;;24.82;100.00
32747;BME280;19118;50.860;13.662;2023-06-22T21:28:12;96536.44;;;24.91;100.00
32747;BME280;19118;50.860;13.662;2023-06-22T21:33:12;96494.88;;;24.74;100.00
32747;BME280;19118;50.860;13.662;2023-06-22T21:38:13;96484.66;;;24.10;100.00
32747;BME280;19118;50.860;13.662;2023-06-22T21:43:13;96467.00;;;23.67;100.00
32747;BME280;19118;50.860;13.662;2023-06-22T21:48:14;96421.41;;;23.46;100.00
32747;BME280;19118;50.860;13.662;2023-06-22T21:53:14;96445.34;;;23.34;100.00
32747;BME280;19118;50.860;13.662;2023-06-22T21:58:14;96435.28;;;23.21;100.00
32747;BME280;19118;50.860;13.662;2023-06-22T22:03:15;96435.72;;;23.09;100.00
32747;BME280;19118;50.860;13.662;2023-06-22T22:08:16;96436.06;;;22.84;100.00
32747;BME280;19118;50.860;13.662;2023-06-22T22:13:17;96436.28;;;22.87;100.00
32747;BME280;19118;50.860;13.662;2023-06-22T22:18:18;96418.50;;;22.62;100.00
32747;BME280;19118;50.860;13.662;2023-06-22T22:23:18;96441.66;;;22.63;100.00
32747;BME280;19118;50.860;13.662;2023-06-22T22:28:19;96528.66;;;22.45;100.00
32747;BME280;19118;50.860;13.662;2023-06-22T22:33:19;96549.94;;;21.78;100.00
32747;BME280;19118;50.860;13.662;2023-06-22T22:38:20;96564.47;;;21.23;100.00
32747;BME280;19118;50.860;13.662;2023-06-22T22:43:20;96569.66;;;21.04;100.00
32747;BME280;19118;50.860;13.662;2023-06-22T22:48:20;96623.50;;;20.79;100.00
32747;BME280;19118;50.860;13.662;2023-06-22T22:53:21;96706.28;;;20.77;100.00
32747;BME280;19118;50.860;13.662;2023-06-22T22:58:21;96742.03;;;19.79;100.00
32747;BME280;19118;50.860;13.662;2023-06-22T23:03:21;96754.72;;;18.13;100.00
32747;BME280;19118;50.860;13.662;2023-06-22T23:08:22;96782.97;;;17.65;100.00
32747;BME280;19118;50.860;13.662;2023-06-22T23:13:23;96820.41;;;17.27;100.00
32747;BME280;19118;50.860;13.662;2023-06-22T23:18:23;96811.91;;;17.13;100.00
32747;BME280;19118;50.860;13.662;2023-06-22T23:23:23;96797.31;;;17.21;100.00
32747;BME280;19118;50.860;13.662;2023-06-22T23:28:24;96789.28;;;17.21;100.00
32747;BME280;19118;50.860;13.662;2023-06-22T23:33:25;96775.53;;;17.29;100.00
32747;BME280;19118;50.860;13.662;2023-06-22T23:38:26;96745.28;;;17.45;100.00
32747;BME280;19118;50.860;13.662;2023-06-22T23:43:26;96716.47;;;17.30;100.00
32747;BME280;19118;50.860;13.662;2023-06-22T23:48:27;96701.69;;;17.23;100.00
32747;BME280;19118;50.860;13.662;2023-06-22T23:53:27;96691.91;;;17.11;100.00
32747;BME280;19118;50.860;13.662;2023-06-22T23:58:28;96678.88;;;16.98;100.00
